sensor_id;sensor_type;location;lat;lon;timestamp;temperature;humidity
30250;DHT22;17064;47.974;13.826;2024-03-02T00:01:02;5.90;99.90
30250;DHT22;17064;47.974;13.826;2024-03-02T00:06:04;5.90;99.90
30250;DHT22;17064;47.974;13.826;2024-03-02T00:11:04;5.80;99.90
30250;DHT22;17064;47.974;13.826;2024-03-02T00:16:05;5.80;99.90
30250;DHT22;17064;47.974;13.826;2024-03-02T00:21:07;5.80;99.90
30250;DHT22;17064;47.974;13.826;2024-03-02T00:26:11;5.70;99.90
30250;DHT22;17064;47.974;13.826;2024-03-02T00:31:13;5.70;99.90
30250;DHT22;17064;47.974;13.826;2024-03-02T00:36:15;5.60;99.90
30250;DHT22;17064;47.974;13.826;2024-03-02T00:41:28;5.60;99.90
30250;DHT22;17064;47.974;13.826;2024-03-02T00:46:36;5.60;99.90
30250;DHT22;17064;47.974;13.826;2024-03-02T00:51:39;5.60;99.90
30250;DHT22;17064;47.974;13.826;2024-03-02T00:56:41;5.70;99.90
30250;DHT22;17064;47.974;13.826;2024-03-02T01:01:42;5.70;99.90
30250;DHT22;17064;47.974;13.826;2024-03-02T01:06:43;5.60;99.90
30250;DHT22;17064;47.974;13.826;2024-03-02T01:11:44;5.60;99.90
30250;DHT22;17064;47.974;13.826;2024-03-02T01:16:45;5.60;99.90
30250;DHT22;17064;47.974;13.826;2024-03-02T01:21:45;5.60;99.90
30250;DHT22;17064;47.974;13.826;2024-03-02T01:26:46;5.60;99.90
30250;DHT22;17064;47.974;13.826;2024-03-02T01:31:46;5.60;99.90
30250;DHT22;17064;47.974;13.826;2024-03-02T01:36:48;5.60;99.90
30250;DHT22;17064;47.974;13.826;2024-03-02T01:41:48;5.60;99.90
30250;DHT22;17064;47.974;13.826;2024-03-02T01:46:49;5.50;99.90
30250;DHT22;17064;47.974;13.826;2024-03-02T01:51:51;5.50;99.90
30250;DHT22;17064;47.974;13.826;2024-03-02T01:56:52;5.50;99.90
30250;DHT22;17064;47.974;13.826;2024-03-02T02:01:52;5.40;99.90
30250;DHT22;17064;47.974;13.826;2024-03-02T02:06:54;5.40;99.90
30250;DHT22;17064;47.974;13.826;2024-03-02T02:11:54;5.40;99.90
30250;DHT22;17064;47.974;13.826;2024-03-02T02:16:55;5.40;99.90
30250;DHT22;17064;47.974;13.826;2024-03-02T02:21:56;5.40;99.90
30250;DHT22;17064;47.974;13.826;2024-03-02T02:26:56;5.40;99.90
30250;DHT22;17064;47.974;13.826;2024-03-02T02:31:57;5.30;99.90
30250;DHT22;17064;47.974;13.826;2024-03-02T02:36:58;5.30;99.90
30250;DHT22;17064;47.974;13.826;2024-03-02T02:41:58;5.30;99.90
30250;DHT22;17064;47.974;13.826;2024-03-02T02:47:01;5.30;99.90
30250;DHT22;17064;47.974;13.826;2024-03-02T02:52:02;5.30;99.90
30250;DHT22;17064;47.974;13.826;2024-03-02T02:57:03;5.30;99.90
30250;DHT22;17064;47.974;13.826;2024-03-02T03:02:04;5.30;99.90
30250;DHT22;17064;47.974;13.826;2024-03-02T03:07:05;5.30;99.90
30250;DHT22;17064;47.974;13.826;2024-03-02T03:12:05;5.30;99.90
30250;DHT22;17064;47.974;13.826;2024-03-02T03:17:06;5.20;99.90
30250;DHT22;17064;47.974;13.826;2024-03-02T03:22:08;5.20;99.90
30250;DHT22;17064;47.974;13.826;2024-03-02T03:27:10;5.30;99.90
30250;DHT22;17064;47.974;13.826;2024-03-02T03:32:12;5.30;99.90
30250;DHT22;17064;47.974;13.826;2024-03-02T03:37:12;5.30;99.90
30250;DHT22;17064;47.974;13.826;2024-03-02T03:42:13;5.30;99.90
30250;DHT22;17064;47.974;13.826;2024-03-02T03:47:14;5.30;99.90
30250;DHT22;17064;47.974;13.826;2024-03-02T03:52:15;5.30;99.90
30250;DHT22;17064;47.974;13.826;2024-03-02T03:57:16;5.30;99.90
30250;DHT22;17064;47.974;13.826;2024-03-02T04:02:16;5.30;99.90
30250;DHT22;17064;47.974;13.826;2024-03-02T04:07:17;5.30;99.90
30250;DHT22;17064;47.974;13.826;2024-03-02T04:12:18;5.30;99.90
30250;DHT22;17064;47.974;13.826;2024-03-02T04:17:19;5.30;99.90
30250;DHT22;17064;47.974;13.826;2024-03-02T04:22:19;5.20;99.90
30250;DHT22;17064;47.974;13.826;2024-03-02T04:27:20;5.20;99.90
30250;DHT22;17064;47.974;13.826;2024-03-02T04:32:21;5.20;99.90
30250;DHT22;17064;47.974;13.826;2024-03-02T04:37:21;5.20;99.90
30250;DHT22;17064;47.974;13.826;2024-03-02T04:42:22;5.20;99.90
30250;DHT22;17064;47.974;13.826;2024-03-02T04:47:23;5.20;99.90
30250;DHT22;17064;47.974;13.826;2024-03-02T04:52:24;5.10;99.90
30250;DHT22;17064;47.974;13.826;2024-03-02T04:57:24;5.10;99.90
30250;DHT22;17064;47.974;13.826;2024-03-02T05:02:25;5.10;99.90
30250;DHT22;17064;47.974;13.826;2024-03-02T05:07:25;5.10;99.90
30250;DHT22;17064;47.974;13.826;2024-03-02T05:12:26;5.10;99.90
30250;DHT22;17064;47.974;13.826;2024-03-02T05:17:49;5.10;99.90
30250;DHT22;17064;47.974;13.826;2024-03-02T05:22:50;5.10;99.90
30250;DHT22;17064;47.974;13.826;2024-03-02T05:27:51;5.10;99.90
30250;DHT22;17064;47.974;13.826;2024-03-02T05:32:52;5.10;99.90
30250;DHT22;17064;47.974;13.826;2024-03-02T05:37:52;5.10;99.90
30250;DHT22;17064;47.974;13.826;2024-03-02T05:42:53;5.10;99.90
30250;DHT22;17064;47.974;13.826;2024-03-02T05:47:54;5.10;99.90
30250;DHT22;17064;47.974;13.826;2024-03-02T05:52:54;5.10;99.90
30250;DHT22;17064;47.974;13.826;2024-03-02T05:57:56;5.00;99.90
30250;DHT22;17064;47.974;13.826;2024-03-02T06:03:06;5.10;99.90
30250;DHT22;17064;47.974;13.826;2024-03-02T06:08:08;5.00;99.90
30250;DHT22;17064;47.974;13.826;2024-03-02T06:13:09;5.00;99.90
30250;DHT22;17064;47.974;13.826;2024-03-02T06:18:09;5.00;99.90
30250;DHT22;17064;47.974;13.826;2024-03-02T06:23:10;5.10;99.90
30250;DHT22;17064;47.974;13.826;2024-03-02T06:28:10;5.10;99.90
30250;DHT22;17064;47.974;13.826;2024-03-02T06:33:11;5.10;99.90
30250;DHT22;17064;47.974;13.826;2024-03-02T06:38:12;5.20;99.90
30250;DHT22;17064;47.974;13.826;2024-03-02T06:43:13;5.20;99.90
30250;DHT22;17064;47.974;13.826;2024-03-02T06:48:13;5.30;99.90
30250;DHT22;17064;47.974;13.826;2024-03-02T06:53:19;5.30;99.90
30250;DHT22;17064;47.974;13.826;2024-03-02T06:58:20;5.40;99.90
30250;DHT22;17064;47.974;13.826;2024-03-02T07:03:20;5.40;99.90
30250;DHT22;17064;47.974;13.826;2024-03-02T07:08:21;5.50;99.90
30250;DHT22;17064;47.974;13.826;2024-03-02T07:13:22;5.60;99.90
30250;DHT22;17064;47.974;13.826;2024-03-02T07:18:23;5.70;99.90
30250;DHT22;17064;47.974;13.826;2024-03-02T07:23:23;5.80;99.90
30250;DHT22;17064;47.974;13.826;2024-03-02T07:28:27;5.90;99.90
30250;DHT22;17064;47.974;13.826;2024-03-02T07:33:28;6.00;99.90
30250;DHT22;17064;47.974;13.826;2024-03-02T07:38:29;6.00;99.90
30250;DHT22;17064;47.974;13.826;2024-03-02T07:43:30;6.10;99.90
30250;DHT22;17064;47.974;13.826;2024-03-02T07:48:33;6.10;99.90
30250;DHT22;17064;47.974;13.826;2024-03-02T07:53:34;6.20;99.90
30250;DHT22;17064;47.974;13.826;2024-03-02T07:58:34;6.30;99.90
30250;DHT22;17064;47.974;13.826;2024-03-02T08:03:35;6.40;99.90
30250;DHT22;17064;47.974;13.826;2024-03-02T08:08:37;6.40;99.90
30250;DHT22;17064;47.974;13.826;2024-03-02T08:13:38;6.40;99.90
30250;DHT22;17064;47.974;13.826;2024-03-02T08:18:39;6.50;99.90
30250;DHT22;17064;47.974;13.826;2024-03-02T08:23:40;6.70;99.90
30250;DHT22;17064;47.974;13.826;2024-03-02T08:28:42;6.90;99.90
30250;DHT22;17064;47.974;13.826;2024-03-02T08:33:43;7.00;99.90
30250;DHT22;17064;47.974;13.826;2024-03-02T08:38:43;7.00;99.90
30250;DHT22;17064;47.974;13.826;2024-03-02T08:43:44;7.10;99.90
30250;DHT22;17064;47.974;13.826;2024-03-02T08:48:45;7.30;99.90
30250;DHT22;17064;47.974;13.826;2024-03-02T08:53:46;7.50;99.90
30250;DHT22;17064;47.974;13.826;2024-03-02T08:58:46;7.70;99.90
30250;DHT22;17064;47.974;13.826;2024-03-02T09:03:47;8.00;99.90
30250;DHT22;17064;47.974;13.826;2024-03-02T09:08:49;8.20;99.90
30250;DHT22;17064;47.974;13.826;2024-03-02T09:13:52;8.30;99.90
30250;DHT22;17064;47.974;13.826;2024-03-02T09:18:53;8.40;99.90
30250;DHT22;17064;47.974;13.826;2024-03-02T09:23:54;8.30;99.90
30250;DHT22;17064;47.974;13.826;2024-03-02T09:28:54;8.30;99.90
30250;DHT22;17064;47.974;13.826;2024-03-02T09:33:55;8.30;99.90
30250;DHT22;17064;47.974;13.826;2024-03-02T09:38:56;8.30;99.90
30250;DHT22;17064;47.974;13.826;2024-03-02T09:43:56;8.40;99.90
30250;DHT22;17064;47.974;13.826;2024-03-02T09:48:58;8.80;99.90
30250;DHT22;17064;47.974;13.826;2024-03-02T09:54:01;9.30;99.90
30250;DHT22;17064;47.974;13.826;2024-03-02T09:59:02;9.80;99.90
30250;DHT22;17064;47.974;13.826;2024-03-02T10:04:02;10.20;99.90
30250;DHT22;17064;47.974;13.826;2024-03-02T10:09:05;10.70;99.90
30250;DHT22;17064;47.974;13.826;2024-03-02T10:14:10;11.00;99.90
30250;DHT22;17064;47.974;13.826;2024-03-02T10:24:15;11.30;99.90
30250;DHT22;17064;47.974;13.826;2024-03-02T10:29:16;11.30;99.90
30250;DHT22;17064;47.974;13.826;2024-03-02T10:34:16;11.20;99.90
30250;DHT22;17064;47.974;13.826;2024-03-02T10:39:17;11.00;99.90
30250;DHT22;17064;47.974;13.826;2024-03-02T10:44:19;11.00;99.90
30250;DHT22;17064;47.974;13.826;2024-03-02T10:49:20;10.90;99.90
30250;DHT22;17064;47.974;13.826;2024-03-02T10:54:22;11.10;99.90
30250;DHT22;17064;47.974;13.826;2024-03-02T10:59:34;11.40;99.90
30250;DHT22;17064;47.974;13.826;2024-03-02T11:04:36;11.70;99.90
30250;DHT22;17064;47.974;13.826;2024-03-02T11:09:44;12.10;99.90
30250;DHT22;17064;47.974;13.826;2024-03-02T11:14:46;12.30;99.90
30250;DHT22;17064;47.974;13.826;2024-03-02T11:19:47;12.70;99.90
30250;DHT22;17064;47.974;13.826;2024-03-02T11:24:49;12.80;99.90
30250;DHT22;17064;47.974;13.826;2024-03-02T11:29:50;12.80;99.90
30250;DHT22;17064;47.974;13.826;2024-03-02T11:34:51;12.50;99.90
30250;DHT22;17064;47.974;13.826;2024-03-02T11:39:52;12.50;99.90
30250;DHT22;17064;47.974;13.826;2024-03-02T11:44:56;12.50;99.90
30250;DHT22;17064;47.974;13.826;2024-03-02T11:49:58;12.30;99.90
30250;DHT22;17064;47.974;13.826;2024-03-02T11:55:02;12.60;99.90
30250;DHT22;17064;47.974;13.826;2024-03-02T12:00:04;13.10;99.90
30250;DHT22;17064;47.974;13.826;2024-03-02T12:05:06;13.50;99.90
30250;DHT22;17064;47.974;13.826;2024-03-02T12:10:08;13.70;99.90
30250;DHT22;17064;47.974;13.826;2024-03-02T12:15:09;13.90;99.90
30250;DHT22;17064;47.974;13.826;2024-03-02T12:20:12;13.90;99.90
30250;DHT22;17064;47.974;13.826;2024-03-02T12:25:13;14.00;99.90
30250;DHT22;17064;47.974;13.826;2024-03-02T12:30:16;14.10;99.90
30250;DHT22;17064;47.974;13.826;2024-03-02T12:35:18;13.90;99.90
30250;DHT22;17064;47.974;13.826;2024-03-02T12:40:19;13.60;99.90
30250;DHT22;17064;47.974;13.826;2024-03-02T12:45:20;13.50;99.90
30250;DHT22;17064;47.974;13.826;2024-03-02T12:50:30;13.60;99.90
30250;DHT22;17064;47.974;13.826;2024-03-02T12:55:31;13.80;99.90
30250;DHT22;17064;47.974;13.826;2024-03-02T13:00:32;13.90;99.90
30250;DHT22;17064;47.974;13.826;2024-03-02T13:05:35;14.10;99.90
30250;DHT22;17064;47.974;13.826;2024-03-02T13:10:36;14.40;99.90
30250;DHT22;17064;47.974;13.826;2024-03-02T13:15:38;14.20;99.90
30250;DHT22;17064;47.974;13.826;2024-03-02T13:20:39;14.30;99.90
30250;DHT22;17064;47.974;13.826;2024-03-02T13:25:40;14.80;99.90
30250;DHT22;17064;47.974;13.826;2024-03-02T13:30:41;15.20;99.90
30250;DHT22;17064;47.974;13.826;2024-03-02T13:35:41;15.30;99.90
30250;DHT22;17064;47.974;13.826;2024-03-02T13:40:42;15.30;99.90
30250;DHT22;17064;47.974;13.826;2024-03-02T13:45:43;15.50;99.90
30250;DHT22;17064;47.974;13.826;2024-03-02T13:50:44;15.70;99.90
30250;DHT22;17064;47.974;13.826;2024-03-02T13:55:46;15.70;99.90
30250;DHT22;17064;47.974;13.826;2024-03-02T14:00:47;15.50;99.90
30250;DHT22;17064;47.974;13.826;2024-03-02T14:05:47;15.20;99.90
30250;DHT22;17064;47.974;13.826;2024-03-02T14:10:50;15.20;99.90
30250;DHT22;17064;47.974;13.826;2024-03-02T14:15:51;15.40;99.90
30250;DHT22;17064;47.974;13.826;2024-03-02T14:20:51;15.60;99.90
30250;DHT22;17064;47.974;13.826;2024-03-02T14:25:53;14.90;99.90
30250;DHT22;17064;47.974;13.826;2024-03-02T14:30:53;14.00;99.90
30250;DHT22;17064;47.974;13.826;2024-03-02T14:35:55;13.30;99.90
30250;DHT22;17064;47.974;13.826;2024-03-02T14:40:55;12.60;99.90
30250;DHT22;17064;47.974;13.826;2024-03-02T14:45:57;12.20;99.90
30250;DHT22;17064;47.974;13.826;2024-03-02T14:50:59;11.90;99.90
30250;DHT22;17064;47.974;13.826;2024-03-02T14:56:00;11.70;99.90
30250;DHT22;17064;47.974;13.826;2024-03-02T15:01:01;11.50;99.90
30250;DHT22;17064;47.974;13.826;2024-03-02T15:06:02;11.40;99.90
30250;DHT22;17064;47.974;13.826;2024-03-02T15:11:04;11.40;99.90
30250;DHT22;17064;47.974;13.826;2024-03-02T15:16:05;11.60;99.90
30250;DHT22;17064;47.974;13.826;2024-03-02T15:21:06;11.70;99.90
30250;DHT22;17064;47.974;13.826;2024-03-02T15:26:07;11.60;99.90
30250;DHT22;17064;47.974;13.826;2024-03-02T15:31:07;11.50;99.90
30250;DHT22;17064;47.974;13.826;2024-03-02T15:36:08;11.20;99.90
30250;DHT22;17064;47.974;13.826;2024-03-02T15:41:09;10.90;99.90
30250;DHT22;17064;47.974;13.826;2024-03-02T15:46:10;10.60;99.90
30250;DHT22;17064;47.974;13.826;2024-03-02T15:51:11;10.50;99.90
30250;DHT22;17064;47.974;13.826;2024-03-02T15:56:12;10.30;99.90
30250;DHT22;17064;47.974;13.826;2024-03-02T16:01:13;10.10;99.90
30250;DHT22;17064;47.974;13.826;2024-03-02T16:06:13;9.90;99.90
30250;DHT22;17064;47.974;13.826;2024-03-02T16:11:15;9.80;99.90
30250;DHT22;17064;47.974;13.826;2024-03-02T16:16:16;9.70;99.90
30250;DHT22;17064;47.974;13.826;2024-03-02T16:21:16;9.50;99.90
30250;DHT22;17064;47.974;13.826;2024-03-02T16:26:17;9.30;99.90
30250;DHT22;17064;47.974;13.826;2024-03-02T16:31:18;9.10;99.90
30250;DHT22;17064;47.974;13.826;2024-03-02T16:36:19;9.00;99.90
30250;DHT22;17064;47.974;13.826;2024-03-02T16:41:20;8.90;99.90
30250;DHT22;17064;47.974;13.826;2024-03-02T16:46:21;8.70;99.90
30250;DHT22;17064;47.974;13.826;2024-03-02T16:51:22;8.40;99.90
30250;DHT22;17064;47.974;13.826;2024-03-02T16:56:23;8.30;99.90
30250;DHT22;17064;47.974;13.826;2024-03-02T17:01:23;8.10;99.90
30250;DHT22;17064;47.974;13.826;2024-03-02T17:06:26;7.90;99.90
30250;DHT22;17064;47.974;13.826;2024-03-02T17:11:27;7.70;99.90
30250;DHT22;17064;47.974;13.826;2024-03-02T17:16:28;7.60;99.90
30250;DHT22;17064;47.974;13.826;2024-03-02T17:21:29;7.50;99.90
30250;DHT22;17064;47.974;13.826;2024-03-02T17:26:30;7.40;99.90
30250;DHT22;17064;47.974;13.826;2024-03-02T17:31:31;7.40;99.90
30250;DHT22;17064;47.974;13.826;2024-03-02T17:36:32;7.30;99.90
30250;DHT22;17064;47.974;13.826;2024-03-02T17:41:33;7.10;99.90
30250;DHT22;17064;47.974;13.826;2024-03-02T17:46:33;7.00;99.90
30250;DHT22;17064;47.974;13.826;2024-03-02T17:51:34;6.90;99.90
30250;DHT22;17064;47.974;13.826;2024-03-02T17:56:35;6.80;99.90
30250;DHT22;17064;47.974;13.826;2024-03-02T18:01:35;6.70;99.90
30250;DHT22;17064;47.974;13.826;2024-03-02T18:06:36;6.50;99.90
30250;DHT22;17064;47.974;13.826;2024-03-02T18:11:38;6.30;99.90
30250;DHT22;17064;47.974;13.826;2024-03-02T18:16:40;6.30;99.90
30250;DHT22;17064;47.974;13.826;2024-03-02T18:21:40;6.10;99.90
30250;DHT22;17064;47.974;13.826;2024-03-02T18:26:41;6.00;99.90
30250;DHT22;17064;47.974;13.826;2024-03-02T18:31:42;5.90;99.90
30250;DHT22;17064;47.974;13.826;2024-03-02T18:36:44;5.70;99.90
30250;DHT22;17064;47.974;13.826;2024-03-02T18:41:44;5.60;99.90
30250;DHT22;17064;47.974;13.826;2024-03-02T18:46:45;5.40;99.90
30250;DHT22;17064;47.974;13.826;2024-03-02T18:51:46;5.30;99.90
30250;DHT22;17064;47.974;13.826;2024-03-02T18:56:47;5.20;99.90
30250;DHT22;17064;47.974;13.826;2024-03-02T19:01:47;5.00;99.90
30250;DHT22;17064;47.974;13.826;2024-03-02T19:06:49;5.00;99.90
30250;DHT22;17064;47.974;13.826;2024-03-02T19:11:50;4.90;99.90
30250;DHT22;17064;47.974;13.826;2024-03-02T19:16:50;4.80;99.90
30250;DHT22;17064;47.974;13.826;2024-03-02T19:21:51;4.70;99.90
30250;DHT22;17064;47.974;13.826;2024-03-02T19:26:52;4.70;99.90
30250;DHT22;17064;47.974;13.826;2024-03-02T19:31:53;4.50;99.90
30250;DHT22;17064;47.974;13.826;2024-03-02T19:36:53;4.40;99.90
30250;DHT22;17064;47.974;13.826;2024-03-02T19:41:57;4.30;99.90
30250;DHT22;17064;47.974;13.826;2024-03-02T19:47:00;4.20;99.90
30250;DHT22;17064;47.974;13.826;2024-03-02T19:52:01;4.00;99.90
30250;DHT22;17064;47.974;13.826;2024-03-02T19:57:01;3.90;99.90
30250;DHT22;17064;47.974;13.826;2024-03-02T20:02:02;3.90;99.90
30250;DHT22;17064;47.974;13.826;2024-03-02T20:07:04;3.90;99.90
30250;DHT22;17064;47.974;13.826;2024-03-02T20:12:05;3.90;99.90
30250;DHT22;17064;47.974;13.826;2024-03-02T20:17:08;3.80;99.90
30250;DHT22;17064;47.974;13.826;2024-03-02T20:22:09;3.70;99.90
30250;DHT22;17064;47.974;13.826;2024-03-02T20:27:10;3.60;99.90
30250;DHT22;17064;47.974;13.826;2024-03-02T20:32:11;3.60;99.90
30250;DHT22;17064;47.974;13.826;2024-03-02T20:37:11;3.50;99.90
30250;DHT22;17064;47.974;13.826;2024-03-02T20:42:12;3.40;99.90
30250;DHT22;17064;47.974;13.826;2024-03-02T20:47:13;3.30;99.90
30250;DHT22;17064;47.974;13.826;2024-03-02T20:52:14;3.30;99.90
30250;DHT22;17064;47.974;13.826;2024-03-02T20:57:15;3.20;99.90
30250;DHT22;17064;47.974;13.826;2024-03-02T21:02:15;3.00;99.90
30250;DHT22;17064;47.974;13.826;2024-03-02T21:07:16;3.00;99.90
30250;DHT22;17064;47.974;13.826;2024-03-02T21:12:18;3.00;99.90
30250;DHT22;17064;47.974;13.826;2024-03-02T21:17:19;3.00;99.90
30250;DHT22;17064;47.974;13.826;2024-03-02T21:22:20;2.90;99.90
30250;DHT22;17064;47.974;13.826;2024-03-02T21:27:22;2.80;99.90
30250;DHT22;17064;47.974;13.826;2024-03-02T21:32:22;2.70;99.90
30250;DHT22;17064;47.974;13.826;2024-03-02T21:37:23;2.70;99.90
30250;DHT22;17064;47.974;13.826;2024-03-02T21:42:24;2.70;99.90
30250;DHT22;17064;47.974;13.826;2024-03-02T21:47:25;2.70;99.90
30250;DHT22;17064;47.974;13.826;2024-03-02T21:52:25;2.60;99.90
30250;DHT22;17064;47.974;13.826;2024-03-02T21:57:26;2.50;99.90
30250;DHT22;17064;47.974;13.826;2024-03-02T22:02:27;2.40;99.90
30250;DHT22;17064;47.974;13.826;2024-03-02T22:07:27;2.40;99.90
30250;DHT22;17064;47.974;13.826;2024-03-02T22:12:28;2.40;99.90
30250;DHT22;17064;47.974;13.826;2024-03-02T22:17:28;2.50;99.90
30250;DHT22;17064;47.974;13.826;2024-03-02T22:22:29;2.70;99.90
30250;DHT22;17064;47.974;13.826;2024-03-02T22:27:30;2.80;99.90
30250;DHT22;17064;47.974;13.826;2024-03-02T22:32:31;2.90;99.90
30250;DHT22;17064;47.974;13.826;2024-03-02T22:37:31;3.00;99.90
30250;DHT22;17064;47.974;13.826;2024-03-02T22:42:32;3.10;99.90
30250;DHT22;17064;47.974;13.826;2024-03-02T22:47:33;3.10;99.90
30250;DHT22;17064;47.974;13.826;2024-03-02T22:52:34;3.20;99.90
30250;DHT22;17064;47.974;13.826;2024-03-02T22:57:36;3.20;99.90
30250;DHT22;17064;47.974;13.826;2024-03-02T23:02:36;3.30;99.90
30250;DHT22;17064;47.974;13.826;2024-03-02T23:07:37;3.30;99.90
30250;DHT22;17064;47.974;13.826;2024-03-02T23:12:38;3.40;99.90
30250;DHT22;17064;47.974;13.826;2024-03-02T23:17:38;3.40;99.90
30250;DHT22;17064;47.974;13.826;2024-03-02T23:22:39;3.40;99.90
30250;DHT22;17064;47.974;13.826;2024-03-02T23:27:40;3.40;99.90
30250;DHT22;17064;47.974;13.826;2024-03-02T23:32:41;3.50;99.90
30250;DHT22;17064;47.974;13.826;2024-03-02T23:37:42;3.50;99.90
30250;DHT22;17064;47.974;13.826;2024-03-02T23:42:43;3.50;99.90
30250;DHT22;17064;47.974;13.826;2024-03-02T23:47:44;3.50;99.90
30250;DHT22;17064;47.974;13.826;2024-03-02T23:52:45;3.50;99.90
30250;DHT22;17064;47.974;13.826;2024-03-02T23:57:46;3.40;99.90
